sensor_id;sensor_type;location;lat;lon;timestamp;temperature;humidity
10294;DHT22;5192;50.328;7.610;2023-06-14T00:00:51;18.20;1.00
10294;DHT22;5192;50.328;7.610;2023-06-14T00:03:19;17.90;1.00
10294;DHT22;5192;50.328;7.610;2023-06-14T00:05:50;17.80;1.00
10294;DHT22;5192;50.328;7.610;2023-06-14T00:08:16;17.60;1.00
10294;DHT22;5192;50.328;7.610;2023-06-14T00:10:47;17.50;1.00
10294;DHT22;5192;50.328;7.610;2023-06-14T00:13:14;17.30;1.00
10294;DHT22;5192;50.328;7.610;2023-06-14T00:15:41;17.20;1.00
10294;DHT22;5192;50.328;7.610;2023-06-14T00:18:09;17.00;1.00
10294;DHT22;5192;50.328;7.610;2023-06-14T00:20:38;16.90;1.00
10294;DHT22;5192;50.328;7.610;2023-06-14T00:23:07;16.70;1.00
10294;DHT22;5192;50.328;7.610;2023-06-14T00:25:34;16.60;1.00
10294;DHT22;5192;50.328;7.610;2023-06-14T00:28:01;16.50;1.00
10294;DHT22;5192;50.328;7.610;2023-06-14T00:30:27;16.40;1.00
10294;DHT22;5192;50.328;7.610;2023-06-14T00:32:58;16.40;1.00
10294;DHT22;5192;50.328;7.610;2023-06-14T00:35:25;16.30;1.00
10294;DHT22;5192;50.328;7.610;2023-06-14T00:37:53;16.30;1.00
10294;DHT22;5192;50.328;7.610;2023-06-14T00:40:21;16.20;1.00
10294;DHT22;5192;50.328;7.610;2023-06-14T00:42:50;16.20;1.00
10294;DHT22;5192;50.328;7.610;2023-06-14T00:45:17;16.20;1.00
10294;DHT22;5192;50.328;7.610;2023-06-14T00:47:46;16.20;1.00
10294;DHT22;5192;50.328;7.610;2023-06-14T00:50:12;16.10;1.00
10294;DHT22;5192;50.328;7.610;2023-06-14T00:52:40;16.10;1.00
10294;DHT22;5192;50.328;7.610;2023-06-14T00:55:08;16.00;1.00
10294;DHT22;5192;50.328;7.610;2023-06-14T00:57:35;15.90;1.00
10294;DHT22;5192;50.328;7.610;2023-06-14T01:00:04;15.80;1.00
10294;DHT22;5192;50.328;7.610;2023-06-14T01:02:40;15.70;1.00
10294;DHT22;5192;50.328;7.610;2023-06-14T01:05:08;15.60;1.00
10294;DHT22;5192;50.328;7.610;2023-06-14T01:10:52;15.50;1.00
10294;DHT22;5192;50.328;7.610;2023-06-14T01:13:46;15.40;1.00
10294;DHT22;5192;50.328;7.610;2023-06-14T01:16:14;15.40;1.00
10294;DHT22;5192;50.328;7.610;2023-06-14T01:18:43;15.20;1.00
10294;DHT22;5192;50.328;7.610;2023-06-14T01:21:25;15.10;1.00
10294;DHT22;5192;50.328;7.610;2023-06-14T01:23:51;15.10;1.00
10294;DHT22;5192;50.328;7.610;2023-06-14T01:26:22;15.00;1.00
10294;DHT22;5192;50.328;7.610;2023-06-14T01:28:52;15.00;1.00
10294;DHT22;5192;50.328;7.610;2023-06-14T01:31:24;14.90;1.00
10294;DHT22;5192;50.328;7.610;2023-06-14T01:33:52;14.80;1.00
10294;DHT22;5192;50.328;7.610;2023-06-14T01:36:19;14.80;1.00
10294;DHT22;5192;50.328;7.610;2023-06-14T01:38:48;14.70;1.00
10294;DHT22;5192;50.328;7.610;2023-06-14T01:41:22;14.70;1.00
10294;DHT22;5192;50.328;7.610;2023-06-14T01:43:50;14.60;1.00
10294;DHT22;5192;50.328;7.610;2023-06-14T01:46:17;14.60;1.00
10294;DHT22;5192;50.328;7.610;2023-06-14T01:48:44;14.60;1.00
10294;DHT22;5192;50.328;7.610;2023-06-14T01:51:11;14.50;1.00
10294;DHT22;5192;50.328;7.610;2023-06-14T01:53:38;14.50;1.00
10294;DHT22;5192;50.328;7.610;2023-06-14T01:56:06;14.50;1.00
10294;DHT22;5192;50.328;7.610;2023-06-14T01:58:31;14.40;1.00
10294;DHT22;5192;50.328;7.610;2023-06-14T02:00:59;14.40;1.00
10294;DHT22;5192;50.328;7.610;2023-06-14T02:03:28;14.30;1.00
10294;DHT22;5192;50.328;7.610;2023-06-14T02:05:54;14.30;1.00
10294;DHT22;5192;50.328;7.610;2023-06-14T02:08:21;14.30;1.00
10294;DHT22;5192;50.328;7.610;2023-06-14T02:10:51;14.30;1.00
10294;DHT22;5192;50.328;7.610;2023-06-14T02:13:17;14.30;1.00
10294;DHT22;5192;50.328;7.610;2023-06-14T02:15:45;14.30;1.00
10294;DHT22;5192;50.328;7.610;2023-06-14T02:18:13;14.20;1.00
10294;DHT22;5192;50.328;7.610;2023-06-14T02:20:40;14.20;1.00
10294;DHT22;5192;50.328;7.610;2023-06-14T02:23:06;14.20;1.00
10294;DHT22;5192;50.328;7.610;2023-06-14T02:25:35;14.20;1.00
10294;DHT22;5192;50.328;7.610;2023-06-14T02:28:02;14.10;1.00
10294;DHT22;5192;50.328;7.610;2023-06-14T02:30:29;14.10;1.00
10294;DHT22;5192;50.328;7.610;2023-06-14T02:32:58;14.10;1.00
10294;DHT22;5192;50.328;7.610;2023-06-14T02:35:24;14.10;1.00
10294;DHT22;5192;50.328;7.610;2023-06-14T02:37:53;14.10;1.00
10294;DHT22;5192;50.328;7.610;2023-06-14T02:40:20;14.10;1.00
10294;DHT22;5192;50.328;7.610;2023-06-14T02:42:46;14.00;1.00
10294;DHT22;5192;50.328;7.610;2023-06-14T02:45:16;14.00;1.00
10294;DHT22;5192;50.328;7.610;2023-06-14T02:47:45;14.00;1.00
10294;DHT22;5192;50.328;7.610;2023-06-14T02:50:12;14.00;1.00
10294;DHT22;5192;50.328;7.610;2023-06-14T02:52:38;14.00;1.00
10294;DHT22;5192;50.328;7.610;2023-06-14T02:55:09;14.00;1.00
10294;DHT22;5192;50.328;7.610;2023-06-14T02:57:37;14.00;1.00
10294;DHT22;5192;50.328;7.610;2023-06-14T03:00:04;13.90;1.00
10294;DHT22;5192;50.328;7.610;2023-06-14T03:02:31;13.90;1.00
10294;DHT22;5192;50.328;7.610;2023-06-14T03:04:59;13.90;1.00
10294;DHT22;5192;50.328;7.610;2023-06-14T03:07:30;13.90;1.00
10294;DHT22;5192;50.328;7.610;2023-06-14T03:09:59;13.90;1.00
10294;DHT22;5192;50.328;7.610;2023-06-14T03:12:26;13.90;1.00
10294;DHT22;5192;50.328;7.610;2023-06-14T03:14:54;13.90;1.00
10294;DHT22;5192;50.328;7.610;2023-06-14T03:17:24;13.80;1.00
10294;DHT22;5192;50.328;7.610;2023-06-14T03:19:56;13.80;1.00
10294;DHT22;5192;50.328;7.610;2023-06-14T03:22:24;13.80;1.00
10294;DHT22;5192;50.328;7.610;2023-06-14T03:24:52;13.80;1.00
10294;DHT22;5192;50.328;7.610;2023-06-14T03:27:21;13.80;1.00
10294;DHT22;5192;50.328;7.610;2023-06-14T03:29:49;13.80;1.00
10294;DHT22;5192;50.328;7.610;2023-06-14T03:32:15;13.70;1.00
10294;DHT22;5192;50.328;7.610;2023-06-14T03:34:41;13.70;1.00
10294;DHT22;5192;50.328;7.610;2023-06-14T03:37:09;13.70;1.00
10294;DHT22;5192;50.328;7.610;2023-06-14T03:39:35;13.60;1.00
10294;DHT22;5192;50.328;7.610;2023-06-14T03:42:06;13.60;1.00
10294;DHT22;5192;50.328;7.610;2023-06-14T03:44:34;13.50;1.00
10294;DHT22;5192;50.328;7.610;2023-06-14T03:47:01;13.50;1.00
10294;DHT22;5192;50.328;7.610;2023-06-14T03:49:28;13.50;1.00
10294;DHT22;5192;50.328;7.610;2023-06-14T03:51:56;13.50;1.00
10294;DHT22;5192;50.328;7.610;2023-06-14T03:54:23;13.40;1.00
10294;DHT22;5192;50.328;7.610;2023-06-14T03:56:49;13.40;1.00
10294;DHT22;5192;50.328;7.610;2023-06-14T03:59:18;13.50;1.00
10294;DHT22;5192;50.328;7.610;2023-06-14T04:01:43;13.50;1.00
10294;DHT22;5192;50.328;7.610;2023-06-14T04:04:12;13.50;1.00
10294;DHT22;5192;50.328;7.610;2023-06-14T04:06:39;13.60;1.00
10294;DHT22;5192;50.328;7.610;2023-06-14T04:09:09;13.70;1.20
10294;DHT22;5192;50.328;7.610;2023-06-14T04:11:36;13.50;2.90
10294;DHT22;5192;50.328;7.610;2023-06-14T04:14:02;13.50;3.10
10294;DHT22;5192;50.328;7.610;2023-06-14T04:16:30;13.50;2.20
10294;DHT22;5192;50.328;7.610;2023-06-14T04:18:57;13.50;2.20
10294;DHT22;5192;50.328;7.610;2023-06-14T04:21:23;13.50;4.50
10294;DHT22;5192;50.328;7.610;2023-06-14T04:23:50;13.50;5.60
10294;DHT22;5192;50.328;7.610;2023-06-14T04:26:21;13.50;6.80
10294;DHT22;5192;50.328;7.610;2023-06-14T04:28:50;13.50;6.50
10294;DHT22;5192;50.328;7.610;2023-06-14T04:31:17;13.50;5.30
10294;DHT22;5192;50.328;7.610;2023-06-14T04:33:45;13.60;5.50
10294;DHT22;5192;50.328;7.610;2023-06-14T04:36:13;13.50;8.00
10294;DHT22;5192;50.328;7.610;2023-06-14T04:38:44;13.50;8.30
10294;DHT22;5192;50.328;7.610;2023-06-14T04:41:20;13.50;9.40
10294;DHT22;5192;50.328;7.610;2023-06-14T04:43:49;13.50;8.40
10294;DHT22;5192;50.328;7.610;2023-06-14T04:46:17;13.50;7.10
10294;DHT22;5192;50.328;7.610;2023-06-14T04:48:45;13.50;8.30
10294;DHT22;5192;50.328;7.610;2023-06-14T04:51:17;13.50;9.70
10294;DHT22;5192;50.328;7.610;2023-06-14T04:53:47;13.50;9.20
10294;DHT22;5192;50.328;7.610;2023-06-14T04:56:16;13.60;10.00
10294;DHT22;5192;50.328;7.610;2023-06-14T04:58:43;13.60;10.50
10294;DHT22;5192;50.328;7.610;2023-06-14T05:01:11;13.70;9.10
10294;DHT22;5192;50.328;7.610;2023-06-14T05:03:40;13.70;9.60
10294;DHT22;5192;50.328;7.610;2023-06-14T05:06:08;13.70;11.00
10294;DHT22;5192;50.328;7.610;2023-06-14T05:08:35;13.80;10.70
10294;DHT22;5192;50.328;7.610;2023-06-14T05:11:02;13.80;9.20
10294;DHT22;5192;50.328;7.610;2023-06-14T05:13:32;13.80;11.00
10294;DHT22;5192;50.328;7.610;2023-06-14T05:16:02;13.90;10.60
10294;DHT22;5192;50.328;7.610;2023-06-14T05:18:30;13.90;10.20
10294;DHT22;5192;50.328;7.610;2023-06-14T05:20:59;14.00;10.40
10294;DHT22;5192;50.328;7.610;2023-06-14T05:23:25;14.10;3.40
10294;DHT22;5192;50.328;7.610;2023-06-14T05:25:53;14.30;7.80
10294;DHT22;5192;50.328;7.610;2023-06-14T05:28:20;14.40;8.40
10294;DHT22;5192;50.328;7.610;2023-06-14T05:30:48;14.40;7.60
10294;DHT22;5192;50.328;7.610;2023-06-14T05:33:15;14.50;7.50
10294;DHT22;5192;50.328;7.610;2023-06-14T05:35:42;14.60;6.70
10294;DHT22;5192;50.328;7.610;2023-06-14T05:38:09;14.70;8.30
10294;DHT22;5192;50.328;7.610;2023-06-14T05:40:35;14.70;8.90
10294;DHT22;5192;50.328;7.610;2023-06-14T05:43:03;14.80;7.70
10294;DHT22;5192;50.328;7.610;2023-06-14T05:45:30;14.90;3.70
10294;DHT22;5192;50.328;7.610;2023-06-14T05:47:56;15.00;4.50
10294;DHT22;5192;50.328;7.610;2023-06-14T05:50:22;15.10;5.70
10294;DHT22;5192;50.328;7.610;2023-06-14T05:52:51;15.20;1.00
10294;DHT22;5192;50.328;7.610;2023-06-14T05:55:17;15.40;1.00
10294;DHT22;5192;50.328;7.610;2023-06-14T05:57:44;15.60;1.00
10294;DHT22;5192;50.328;7.610;2023-06-14T06:00:11;15.70;1.00
10294;DHT22;5192;50.328;7.610;2023-06-14T06:02:45;15.90;1.00
10294;DHT22;5192;50.328;7.610;2023-06-14T06:05:14;16.00;1.00
10294;DHT22;5192;50.328;7.610;2023-06-14T06:07:42;16.10;1.00
10294;DHT22;5192;50.328;7.610;2023-06-14T06:10:10;16.20;1.00
10294;DHT22;5192;50.328;7.610;2023-06-14T06:12:37;16.30;1.00
10294;DHT22;5192;50.328;7.610;2023-06-14T06:15:05;16.40;1.00
10294;DHT22;5192;50.328;7.610;2023-06-14T06:17:33;16.50;1.00
10294;DHT22;5192;50.328;7.610;2023-06-14T06:20:02;16.50;1.00
10294;DHT22;5192;50.328;7.610;2023-06-14T06:22:29;16.70;1.00
10294;DHT22;5192;50.328;7.610;2023-06-14T06:24:57;16.90;1.00
10294;DHT22;5192;50.328;7.610;2023-06-14T06:27:23;16.90;1.00
10294;DHT22;5192;50.328;7.610;2023-06-14T06:29:50;17.00;1.00
10294;DHT22;5192;50.328;7.610;2023-06-14T06:32:18;17.10;1.00
10294;DHT22;5192;50.328;7.610;2023-06-14T06:34:46;17.10;1.00
10294;DHT22;5192;50.328;7.610;2023-06-14T06:37:13;17.20;1.00
10294;DHT22;5192;50.328;7.610;2023-06-14T06:39:40;17.30;1.00
10294;DHT22;5192;50.328;7.610;2023-06-14T06:42:06;17.40;1.00
10294;DHT22;5192;50.328;7.610;2023-06-14T06:44:32;17.50;1.00
10294;DHT22;5192;50.328;7.610;2023-06-14T06:46:58;17.50;1.00
10294;DHT22;5192;50.328;7.610;2023-06-14T06:49:25;17.60;1.00
10294;DHT22;5192;50.328;7.610;2023-06-14T06:52:05;17.70;1.00
10294;DHT22;5192;50.328;7.610;2023-06-14T06:54:34;17.80;1.00
10294;DHT22;5192;50.328;7.610;2023-06-14T06:57:04;17.90;1.00
10294;DHT22;5192;50.328;7.610;2023-06-14T06:59:33;17.90;1.00
10294;DHT22;5192;50.328;7.610;2023-06-14T07:01:58;17.90;1.00
10294;DHT22;5192;50.328;7.610;2023-06-14T07:04:26;18.00;1.00
10294;DHT22;5192;50.328;7.610;2023-06-14T07:06:52;18.10;1.00
10294;DHT22;5192;50.328;7.610;2023-06-14T07:09:20;18.20;1.00
10294;DHT22;5192;50.328;7.610;2023-06-14T07:11:48;18.20;1.00
10294;DHT22;5192;50.328;7.610;2023-06-14T07:14:13;18.20;1.00
10294;DHT22;5192;50.328;7.610;2023-06-14T07:16:42;18.30;1.00
10294;DHT22;5192;50.328;7.610;2023-06-14T07:19:08;18.40;1.00
10294;DHT22;5192;50.328;7.610;2023-06-14T07:21:37;18.50;1.00
10294;DHT22;5192;50.328;7.610;2023-06-14T07:24:07;18.50;1.00
10294;DHT22;5192;50.328;7.610;2023-06-14T07:26:33;18.60;1.00
10294;DHT22;5192;50.328;7.610;2023-06-14T07:29:00;18.50;1.00
10294;DHT22;5192;50.328;7.610;2023-06-14T07:31:27;18.60;1.00
10294;DHT22;5192;50.328;7.610;2023-06-14T07:33:55;18.60;1.00
10294;DHT22;5192;50.328;7.610;2023-06-14T07:36:22;18.70;1.00
10294;DHT22;5192;50.328;7.610;2023-06-14T07:38:50;18.70;1.00
10294;DHT22;5192;50.328;7.610;2023-06-14T07:41:17;18.80;1.00
10294;DHT22;5192;50.328;7.610;2023-06-14T07:43:46;18.80;1.00
10294;DHT22;5192;50.328;7.610;2023-06-14T07:46:14;18.80;1.00
10294;DHT22;5192;50.328;7.610;2023-06-14T07:48:42;18.90;1.00
10294;DHT22;5192;50.328;7.610;2023-06-14T07:51:10;19.00;1.00
10294;DHT22;5192;50.328;7.610;2023-06-14T07:53:37;19.00;1.00
10294;DHT22;5192;50.328;7.610;2023-06-14T07:56:05;19.00;1.00
10294;DHT22;5192;50.328;7.610;2023-06-14T07:58:32;19.00;1.00
10294;DHT22;5192;50.328;7.610;2023-06-14T08:00:59;19.10;1.00
10294;DHT22;5192;50.328;7.610;2023-06-14T08:03:28;19.20;1.00
10294;DHT22;5192;50.328;7.610;2023-06-14T08:05:54;19.30;1.00
10294;DHT22;5192;50.328;7.610;2023-06-14T08:08:22;19.40;1.00
10294;DHT22;5192;50.328;7.610;2023-06-14T08:10:49;19.40;1.00
10294;DHT22;5192;50.328;7.610;2023-06-14T08:13:15;19.40;1.00
10294;DHT22;5192;50.328;7.610;2023-06-14T08:15:43;19.50;1.00
10294;DHT22;5192;50.328;7.610;2023-06-14T08:18:10;19.50;1.00
10294;DHT22;5192;50.328;7.610;2023-06-14T08:20:37;19.60;1.00
10294;DHT22;5192;50.328;7.610;2023-06-14T08:23:04;19.60;1.00
10294;DHT22;5192;50.328;7.610;2023-06-14T08:25:31;19.60;1.00
10294;DHT22;5192;50.328;7.610;2023-06-14T08:27:56;19.70;1.00
10294;DHT22;5192;50.328;7.610;2023-06-14T08:30:23;19.70;1.00
10294;DHT22;5192;50.328;7.610;2023-06-14T08:32:51;19.80;1.00
10294;DHT22;5192;50.328;7.610;2023-06-14T08:35:18;19.90;1.00
10294;DHT22;5192;50.328;7.610;2023-06-14T08:37:44;19.90;1.00
10294;DHT22;5192;50.328;7.610;2023-06-14T08:40:23;20.00;1.00
10294;DHT22;5192;50.328;7.610;2023-06-14T08:42:54;20.10;1.00
10294;DHT22;5192;50.328;7.610;2023-06-14T08:45:21;20.10;1.00
10294;DHT22;5192;50.328;7.610;2023-06-14T08:47:53;20.20;1.00
10294;DHT22;5192;50.328;7.610;2023-06-14T08:50:27;20.30;1.00
10294;DHT22;5192;50.328;7.610;2023-06-14T08:53:02;20.30;1.00
10294;DHT22;5192;50.328;7.610;2023-06-14T08:55:30;20.30;1.00
10294;DHT22;5192;50.328;7.610;2023-06-14T08:57:57;20.30;1.00
10294;DHT22;5192;50.328;7.610;2023-06-14T09:00:27;20.40;1.00
10294;DHT22;5192;50.328;7.610;2023-06-14T09:02:55;20.50;1.00
10294;DHT22;5192;50.328;7.610;2023-06-14T09:05:27;20.50;1.00
10294;DHT22;5192;50.328;7.610;2023-06-14T09:07:54;20.50;1.00
10294;DHT22;5192;50.328;7.610;2023-06-14T09:10:27;20.60;1.00
10294;DHT22;5192;50.328;7.610;2023-06-14T09:12:53;20.70;1.00
10294;DHT22;5192;50.328;7.610;2023-06-14T09:15:20;20.60;1.00
10294;DHT22;5192;50.328;7.610;2023-06-14T09:17:48;20.60;1.00
10294;DHT22;5192;50.328;7.610;2023-06-14T09:20:15;20.70;1.00
10294;DHT22;5192;50.328;7.610;2023-06-14T09:22:46;20.60;1.00
10294;DHT22;5192;50.328;7.610;2023-06-14T09:25:13;20.70;1.00
10294;DHT22;5192;50.328;7.610;2023-06-14T09:27:42;20.80;1.00
10294;DHT22;5192;50.328;7.610;2023-06-14T09:30:12;20.70;1.00
10294;DHT22;5192;50.328;7.610;2023-06-14T09:32:40;20.70;1.00
10294;DHT22;5192;50.328;7.610;2023-06-14T09:35:09;20.80;1.00
10294;DHT22;5192;50.328;7.610;2023-06-14T09:37:36;20.80;1.00
10294;DHT22;5192;50.328;7.610;2023-06-14T09:40:06;20.80;1.00
10294;DHT22;5192;50.328;7.610;2023-06-14T09:42:34;20.70;1.00
10294;DHT22;5192;50.328;7.610;2023-06-14T09:45:03;20.70;1.00
10294;DHT22;5192;50.328;7.610;2023-06-14T09:47:31;20.70;1.00
10294;DHT22;5192;50.328;7.610;2023-06-14T09:49:58;20.90;1.00
10294;DHT22;5192;50.328;7.610;2023-06-14T09:52:29;21.00;1.00
10294;DHT22;5192;50.328;7.610;2023-06-14T09:54:56;21.20;1.00
10294;DHT22;5192;50.328;7.610;2023-06-14T09:57:27;21.30;1.00
10294;DHT22;5192;50.328;7.610;2023-06-14T10:00:00;21.30;1.00
10294;DHT22;5192;50.328;7.610;2023-06-14T10:02:37;21.40;1.00
10294;DHT22;5192;50.328;7.610;2023-06-14T10:05:09;21.40;1.00
10294;DHT22;5192;50.328;7.610;2023-06-14T10:07:58;21.50;1.00
10294;DHT22;5192;50.328;7.610;2023-06-14T10:10:25;21.60;1.00
10294;DHT22;5192;50.328;7.610;2023-06-14T10:12:54;21.80;1.00
10294;DHT22;5192;50.328;7.610;2023-06-14T10:15:30;21.90;1.00
10294;DHT22;5192;50.328;7.610;2023-06-14T10:23:54;22.10;1.00
10294;DHT22;5192;50.328;7.610;2023-06-14T10:26:25;22.00;1.00
10294;DHT22;5192;50.328;7.610;2023-06-14T10:29:10;21.90;1.00
10294;DHT22;5192;50.328;7.610;2023-06-14T10:31:49;21.80;1.00
10294;DHT22;5192;50.328;7.610;2023-06-14T10:34:28;21.60;1.00
10294;DHT22;5192;50.328;7.610;2023-06-14T10:37:14;21.50;1.00
10294;DHT22;5192;50.328;7.610;2023-06-14T10:39:45;21.30;1.00
10294;DHT22;5192;50.328;7.610;2023-06-14T10:42:17;21.40;1.00
10294;DHT22;5192;50.328;7.610;2023-06-14T10:45:01;21.60;1.00
10294;DHT22;5192;50.328;7.610;2023-06-14T10:47:45;22.00;1.00
10294;DHT22;5192;50.328;7.610;2023-06-14T10:50:14;22.20;1.00
10294;DHT22;5192;50.328;7.610;2023-06-14T10:52:43;22.50;1.00
10294;DHT22;5192;50.328;7.610;2023-06-14T10:55:12;22.50;1.00
10294;DHT22;5192;50.328;7.610;2023-06-14T10:57:52;22.70;1.00
10294;DHT22;5192;50.328;7.610;2023-06-14T11:00:25;22.80;1.00
10294;DHT22;5192;50.328;7.610;2023-06-14T11:05:59;22.90;1.00
10294;DHT22;5192;50.328;7.610;2023-06-14T11:11:34;22.90;1.00
10294;DHT22;5192;50.328;7.610;2023-06-14T11:14:03;23.10;1.00
10294;DHT22;5192;50.328;7.610;2023-06-14T11:16:30;23.10;1.00
10294;DHT22;5192;50.328;7.610;2023-06-14T11:19:01;23.00;1.00
10294;DHT22;5192;50.328;7.610;2023-06-14T11:21:31;23.00;1.00
10294;DHT22;5192;50.328;7.610;2023-06-14T11:23:59;23.10;1.00
10294;DHT22;5192;50.328;7.610;2023-06-14T11:26:30;23.20;1.00
10294;DHT22;5192;50.328;7.610;2023-06-14T11:28:59;23.20;1.00
10294;DHT22;5192;50.328;7.610;2023-06-14T11:31:27;23.20;1.00
10294;DHT22;5192;50.328;7.610;2023-06-14T11:33:57;23.30;1.00
10294;DHT22;5192;50.328;7.610;2023-06-14T11:36:27;23.50;1.00
10294;DHT22;5192;50.328;7.610;2023-06-14T11:39:05;23.50;1.00
10294;DHT22;5192;50.328;7.610;2023-06-14T11:41:50;23.50;1.00
10294;DHT22;5192;50.328;7.610;2023-06-14T11:44:17;23.40;1.00
10294;DHT22;5192;50.328;7.610;2023-06-14T11:46:44;23.50;1.00
10294;DHT22;5192;50.328;7.610;2023-06-14T11:49:12;23.60;1.00
10294;DHT22;5192;50.328;7.610;2023-06-14T11:51:50;23.70;1.00
10294;DHT22;5192;50.328;7.610;2023-06-14T11:54:18;23.90;1.00
10294;DHT22;5192;50.328;7.610;2023-06-14T11:56:44;24.00;1.00
10294;DHT22;5192;50.328;7.610;2023-06-14T11:59:13;24.20;1.00
10294;DHT22;5192;50.328;7.610;2023-06-14T12:01:43;24.20;1.00
10294;DHT22;5192;50.328;7.610;2023-06-14T12:04:09;24.20;1.00
10294;DHT22;5192;50.328;7.610;2023-06-14T12:06:36;24.10;1.00
10294;DHT22;5192;50.328;7.610;2023-06-14T12:09:07;24.00;1.00
10294;DHT22;5192;50.328;7.610;2023-06-14T12:11:40;23.80;1.00
10294;DHT22;5192;50.328;7.610;2023-06-14T12:14:08;23.80;1.00
10294;DHT22;5192;50.328;7.610;2023-06-14T12:16:38;24.00;1.00
10294;DHT22;5192;50.328;7.610;2023-06-14T12:19:13;24.20;1.00
10294;DHT22;5192;50.328;7.610;2023-06-14T12:21:46;24.10;1.00
10294;DHT22;5192;50.328;7.610;2023-06-14T12:24:18;24.00;1.00
10294;DHT22;5192;50.328;7.610;2023-06-14T12:26:45;24.10;1.00
10294;DHT22;5192;50.328;7.610;2023-06-14T12:29:14;24.10;1.00
10294;DHT22;5192;50.328;7.610;2023-06-14T12:31:40;24.30;1.00
10294;DHT22;5192;50.328;7.610;2023-06-14T12:34:08;24.30;1.00
10294;DHT22;5192;50.328;7.610;2023-06-14T12:36:35;24.40;1.00
10294;DHT22;5192;50.328;7.610;2023-06-14T12:39:07;24.50;1.00
10294;DHT22;5192;50.328;7.610;2023-06-14T12:41:37;24.60;1.00
10294;DHT22;5192;50.328;7.610;2023-06-14T12:44:03;24.50;1.00
10294;DHT22;5192;50.328;7.610;2023-06-14T12:46:33;24.60;1.00
10294;DHT22;5192;50.328;7.610;2023-06-14T12:49:01;24.70;1.00
10294;DHT22;5192;50.328;7.610;2023-06-14T12:51:28;24.70;1.00
10294;DHT22;5192;50.328;7.610;2023-06-14T12:53:57;24.90;1.00
10294;DHT22;5192;50.328;7.610;2023-06-14T12:56:23;24.60;1.00
10294;DHT22;5192;50.328;7.610;2023-06-14T12:58:51;24.70;1.00
10294;DHT22;5192;50.328;7.610;2023-06-14T13:01:18;24.90;1.00
10294;DHT22;5192;50.328;7.610;2023-06-14T13:03:49;24.90;1.00
10294;DHT22;5192;50.328;7.610;2023-06-14T13:06:23;25.20;1.00
10294;DHT22;5192;50.328;7.610;2023-06-14T13:08:50;25.30;1.00
10294;DHT22;5192;50.328;7.610;2023-06-14T13:11:18;25.50;1.00
10294;DHT22;5192;50.328;7.610;2023-06-14T13:13:46;25.30;1.00
10294;DHT22;5192;50.328;7.610;2023-06-14T13:16:12;25.10;1.00
10294;DHT22;5192;50.328;7.610;2023-06-14T13:18:43;25.10;1.00
10294;DHT22;5192;50.328;7.610;2023-06-14T13:21:10;25.20;1.00
10294;DHT22;5192;50.328;7.610;2023-06-14T13:23:38;25.30;1.00
10294;DHT22;5192;50.328;7.610;2023-06-14T13:26:05;25.20;1.00
10294;DHT22;5192;50.328;7.610;2023-06-14T13:28:32;25.40;1.00
10294;DHT22;5192;50.328;7.610;2023-06-14T13:31:02;25.60;1.00
10294;DHT22;5192;50.328;7.610;2023-06-14T13:33:29;25.80;1.00
10294;DHT22;5192;50.328;7.610;2023-06-14T13:35:56;25.90;1.00
10294;DHT22;5192;50.328;7.610;2023-06-14T13:38:23;26.10;1.00
10294;DHT22;5192;50.328;7.610;2023-06-14T13:40:50;26.30;1.00
10294;DHT22;5192;50.328;7.610;2023-06-14T13:43:18;26.50;1.00
10294;DHT22;5192;50.328;7.610;2023-06-14T13:45:44;26.50;1.00
10294;DHT22;5192;50.328;7.610;2023-06-14T13:48:11;26.70;1.00
10294;DHT22;5192;50.328;7.610;2023-06-14T13:50:39;26.80;1.00
10294;DHT22;5192;50.328;7.610;2023-06-14T13:53:06;26.80;1.00
10294;DHT22;5192;50.328;7.610;2023-06-14T13:55:34;26.40;1.00
10294;DHT22;5192;50.328;7.610;2023-06-14T13:58:00;26.10;1.00
10294;DHT22;5192;50.328;7.610;2023-06-14T14:00:30;25.80;1.00
10294;DHT22;5192;50.328;7.610;2023-06-14T14:02:56;25.70;1.00
10294;DHT22;5192;50.328;7.610;2023-06-14T14:05:23;25.80;1.00
10294;DHT22;5192;50.328;7.610;2023-06-14T14:07:55;26.20;1.00
10294;DHT22;5192;50.328;7.610;2023-06-14T14:10:25;26.50;1.00
10294;DHT22;5192;50.328;7.610;2023-06-14T14:12:52;26.80;1.00
10294;DHT22;5192;50.328;7.610;2023-06-14T14:15:24;27.10;1.00
10294;DHT22;5192;50.328;7.610;2023-06-14T14:17:52;27.50;1.00
10294;DHT22;5192;50.328;7.610;2023-06-14T14:20:21;27.90;1.00
10294;DHT22;5192;50.328;7.610;2023-06-14T14:22:49;28.10;1.00
10294;DHT22;5192;50.328;7.610;2023-06-14T14:25:16;28.00;1.00
10294;DHT22;5192;50.328;7.610;2023-06-14T14:27:44;27.80;1.00
10294;DHT22;5192;50.328;7.610;2023-06-14T14:30:13;27.90;1.00
10294;DHT22;5192;50.328;7.610;2023-06-14T14:32:41;27.70;1.00
10294;DHT22;5192;50.328;7.610;2023-06-14T14:35:11;27.30;1.00
10294;DHT22;5192;50.328;7.610;2023-06-14T14:37:38;27.20;1.00
10294;DHT22;5192;50.328;7.610;2023-06-14T14:40:04;27.90;1.00
10294;DHT22;5192;50.328;7.610;2023-06-14T14:42:32;28.50;1.00
10294;DHT22;5192;50.328;7.610;2023-06-14T14:44:58;29.20;1.00
10294;DHT22;5192;50.328;7.610;2023-06-14T14:47:27;29.50;1.00
10294;DHT22;5192;50.328;7.610;2023-06-14T14:49:54;29.90;1.00
10294;DHT22;5192;50.328;7.610;2023-06-14T14:52:21;30.00;1.00
10294;DHT22;5192;50.328;7.610;2023-06-14T14:54:48;30.50;1.00
10294;DHT22;5192;50.328;7.610;2023-06-14T14:57:17;31.20;1.00
10294;DHT22;5192;50.328;7.610;2023-06-14T14:59:44;32.20;1.00
10294;DHT22;5192;50.328;7.610;2023-06-14T15:02:11;32.80;1.00
10294;DHT22;5192;50.328;7.610;2023-06-14T15:04:38;32.60;1.00
10294;DHT22;5192;50.328;7.610;2023-06-14T15:07:03;31.60;1.00
10294;DHT22;5192;50.328;7.610;2023-06-14T15:09:31;30.90;1.00
10294;DHT22;5192;50.328;7.610;2023-06-14T15:11:58;31.00;1.00
10294;DHT22;5192;50.328;7.610;2023-06-14T15:14:23;31.30;1.00
10294;DHT22;5192;50.328;7.610;2023-06-14T15:16:53;30.80;1.00
10294;DHT22;5192;50.328;7.610;2023-06-14T15:19:20;30.80;1.00
10294;DHT22;5192;50.328;7.610;2023-06-14T15:21:46;31.20;1.00
10294;DHT22;5192;50.328;7.610;2023-06-14T15:24:14;31.90;1.00
10294;DHT22;5192;50.328;7.610;2023-06-14T15:26:41;32.60;1.00
10294;DHT22;5192;50.328;7.610;2023-06-14T15:29:08;32.70;1.00
10294;DHT22;5192;50.328;7.610;2023-06-14T15:31:35;32.20;1.00
10294;DHT22;5192;50.328;7.610;2023-06-14T15:34:02;31.40;1.00
10294;DHT22;5192;50.328;7.610;2023-06-14T15:36:29;30.60;1.00
10294;DHT22;5192;50.328;7.610;2023-06-14T15:38:56;29.70;1.00
10294;DHT22;5192;50.328;7.610;2023-06-14T15:41:23;29.20;1.00
10294;DHT22;5192;50.328;7.610;2023-06-14T15:43:50;28.70;1.00
10294;DHT22;5192;50.328;7.610;2023-06-14T15:46:16;28.10;1.00
10294;DHT22;5192;50.328;7.610;2023-06-14T15:48:44;27.80;1.00
10294;DHT22;5192;50.328;7.610;2023-06-14T15:51:10;27.50;1.00
10294;DHT22;5192;50.328;7.610;2023-06-14T15:53:37;27.20;1.00
10294;DHT22;5192;50.328;7.610;2023-06-14T15:56:04;27.30;1.00
10294;DHT22;5192;50.328;7.610;2023-06-14T15:58:32;28.10;1.00
10294;DHT22;5192;50.328;7.610;2023-06-14T16:00:59;29.70;1.00
10294;DHT22;5192;50.328;7.610;2023-06-14T16:03:28;31.20;1.00
10294;DHT22;5192;50.328;7.610;2023-06-14T16:05:54;31.70;1.00
10294;DHT22;5192;50.328;7.610;2023-06-14T16:08:21;31.20;1.00
10294;DHT22;5192;50.328;7.610;2023-06-14T16:10:48;30.50;1.00
10294;DHT22;5192;50.328;7.610;2023-06-14T16:13:14;29.70;1.00
10294;DHT22;5192;50.328;7.610;2023-06-14T16:15:41;28.80;1.00
10294;DHT22;5192;50.328;7.610;2023-06-14T16:18:07;28.20;1.00
10294;DHT22;5192;50.328;7.610;2023-06-14T16:20:34;27.80;1.00
10294;DHT22;5192;50.328;7.610;2023-06-14T16:23:00;27.90;1.00
10294;DHT22;5192;50.328;7.610;2023-06-14T16:25:26;28.50;1.00